sensor_id;sensor_type;location;lat;lon;timestamp;temperature;humidity
78793;SHT31;68134;51.984;5.652;2024-01-10T00:00:52;-0.6;42.2
78793;SHT31;68134;51.984;5.652;2024-01-10T00:03:21;-0.6;42.1
78793;SHT31;68134;51.984;5.652;2024-01-10T00:05:50;-0.6;42.2
78793;SHT31;68134;51.984;5.652;2024-01-10T00:08:18;-0.7;42.6
78793;SHT31;68134;51.984;5.652;2024-01-10T00:10:47;-0.7;42.5
78793;SHT31;68134;51.984;5.652;2024-01-10T00:13:15;-0.7;42.8
78793;SHT31;68134;51.984;5.652;2024-01-10T00:15:44;-0.7;42.7
78793;SHT31;68134;51.984;5.652;2024-01-10T00:18:12;-0.7;43.0
78793;SHT31;68134;51.984;5.652;2024-01-10T00:20:41;-0.7;43.6
78793;SHT31;68134;51.984;5.652;2024-01-10T00:23:11;-0.7;43.2
78793;SHT31;68134;51.984;5.652;2024-01-10T00:25:40;-0.7;43.2
78793;SHT31;68134;51.984;5.652;2024-01-10T00:28:09;-0.7;43.3
78793;SHT31;68134;51.984;5.652;2024-01-10T00:30:38;-0.7;43.0
78793;SHT31;68134;51.984;5.652;2024-01-10T00:33:06;-0.7;43.7
78793;SHT31;68134;51.984;5.652;2024-01-10T00:35:37;-0.7;44.2
78793;SHT31;68134;51.984;5.652;2024-01-10T00:38:05;-0.7;43.4
78793;SHT31;68134;51.984;5.652;2024-01-10T00:40:34;-0.7;43.8
78793;SHT31;68134;51.984;5.652;2024-01-10T00:43:03;-0.7;43.6
78793;SHT31;68134;51.984;5.652;2024-01-10T00:45:33;-0.7;44.3
78793;SHT31;68134;51.984;5.652;2024-01-10T00:48:02;-0.7;44.2
78793;SHT31;68134;51.984;5.652;2024-01-10T00:50:31;-0.7;44.5
78793;SHT31;68134;51.984;5.652;2024-01-10T00:53:01;-0.7;43.8
78793;SHT31;68134;51.984;5.652;2024-01-10T00:55:30;-0.7;43.8
78793;SHT31;68134;51.984;5.652;2024-01-10T00:57:58;-0.7;43.9
78793;SHT31;68134;51.984;5.652;2024-01-10T01:00:27;-0.7;44.4
78793;SHT31;68134;51.984;5.652;2024-01-10T01:02:56;-0.8;44.4
78793;SHT31;68134;51.984;5.652;2024-01-10T01:05:24;-0.8;44.5
78793;SHT31;68134;51.984;5.652;2024-01-10T01:07:53;-0.8;44.6
78793;SHT31;68134;51.984;5.652;2024-01-10T01:10:22;-0.9;45.1
78793;SHT31;68134;51.984;5.652;2024-01-10T01:12:50;-0.9;45.4
78793;SHT31;68134;51.984;5.652;2024-01-10T01:15:19;-0.9;45.8
78793;SHT31;68134;51.984;5.652;2024-01-10T01:17:47;-1.0;45.6
78793;SHT31;68134;51.984;5.652;2024-01-10T01:20:16;-1.0;45.8
78793;SHT31;68134;51.984;5.652;2024-01-10T01:22:44;-1.0;45.8
78793;SHT31;68134;51.984;5.652;2024-01-10T01:25:13;-1.0;46.0
78793;SHT31;68134;51.984;5.652;2024-01-10T01:27:41;-1.0;45.8
78793;SHT31;68134;51.984;5.652;2024-01-10T01:30:13;-1.0;45.9
78793;SHT31;68134;51.984;5.652;2024-01-10T01:32:41;-1.1;45.9
78793;SHT31;68134;51.984;5.652;2024-01-10T01:35:12;-1.1;46.1
78793;SHT31;68134;51.984;5.652;2024-01-10T01:37:41;-1.1;46.3
78793;SHT31;68134;51.984;5.652;2024-01-10T01:40:10;-1.1;46.3
78793;SHT31;68134;51.984;5.652;2024-01-10T01:42:39;-1.1;46.4
78793;SHT31;68134;51.984;5.652;2024-01-10T01:45:08;-1.1;46.5
78793;SHT31;68134;51.984;5.652;2024-01-10T01:47:38;-1.1;46.4
78793;SHT31;68134;51.984;5.652;2024-01-10T01:50:07;-1.1;46.2
78793;SHT31;68134;51.984;5.652;2024-01-10T01:52:37;-1.1;46.1
78793;SHT31;68134;51.984;5.652;2024-01-10T01:55:08;-1.1;46.6
78793;SHT31;68134;51.984;5.652;2024-01-10T01:57:37;-1.1;46.9
78793;SHT31;68134;51.984;5.652;2024-01-10T02:00:07;-1.1;46.8
78793;SHT31;68134;51.984;5.652;2024-01-10T02:02:39;-1.1;46.7
78793;SHT31;68134;51.984;5.652;2024-01-10T02:05:08;-1.1;46.7
78793;SHT31;68134;51.984;5.652;2024-01-10T02:07:37;-1.1;47.1
78793;SHT31;68134;51.984;5.652;2024-01-10T02:10:06;-1.1;47.1
78793;SHT31;68134;51.984;5.652;2024-01-10T02:12:35;-1.1;47.2
78793;SHT31;68134;51.984;5.652;2024-01-10T02:15:05;-1.1;46.7
78793;SHT31;68134;51.984;5.652;2024-01-10T02:17:33;-1.1;47.0
78793;SHT31;68134;51.984;5.652;2024-01-10T02:20:12;-1.1;46.4
78793;SHT31;68134;51.984;5.652;2024-01-10T02:22:43;-1.1;46.5
78793;SHT31;68134;51.984;5.652;2024-01-10T02:25:13;-1.1;46.6
78793;SHT31;68134;51.984;5.652;2024-01-10T02:27:42;-1.1;46.3
78793;SHT31;68134;51.984;5.652;2024-01-10T02:30:11;-1.1;46.9
78793;SHT31;68134;51.984;5.652;2024-01-10T02:32:39;-1.1;47.0
78793;SHT31;68134;51.984;5.652;2024-01-10T02:35:09;-1.1;47.0
78793;SHT31;68134;51.984;5.652;2024-01-10T02:37:37;-1.1;47.4
78793;SHT31;68134;51.984;5.652;2024-01-10T02:40:07;-1.1;47.2
78793;SHT31;68134;51.984;5.652;2024-01-10T02:42:35;-1.1;47.2
78793;SHT31;68134;51.984;5.652;2024-01-10T02:45:04;-1.1;47.5
78793;SHT31;68134;51.984;5.652;2024-01-10T02:47:33;-1.1;47.7
78793;SHT31;68134;51.984;5.652;2024-01-10T02:50:03;-1.1;47.5
78793;SHT31;68134;51.984;5.652;2024-01-10T02:52:32;-1.1;47.7
78793;SHT31;68134;51.984;5.652;2024-01-10T02:55:00;-1.1;47.6
78793;SHT31;68134;51.984;5.652;2024-01-10T02:57:31;-1.1;47.7
78793;SHT31;68134;51.984;5.652;2024-01-10T02:59:59;-1.1;47.5
78793;SHT31;68134;51.984;5.652;2024-01-10T03:02:30;-1.1;47.5
78793;SHT31;68134;51.984;5.652;2024-01-10T03:05:01;-1.1;47.6
78793;SHT31;68134;51.984;5.652;2024-01-10T03:07:30;-1.1;47.7
78793;SHT31;68134;51.984;5.652;2024-01-10T03:09:58;-1.1;48.3
78793;SHT31;68134;51.984;5.652;2024-01-10T03:12:29;-1.1;47.8
78793;SHT31;68134;51.984;5.652;2024-01-10T03:14:57;-1.1;47.8
78793;SHT31;68134;51.984;5.652;2024-01-10T03:17:26;-1.1;48.1
78793;SHT31;68134;51.984;5.652;2024-01-10T03:19:55;-1.1;48.5
78793;SHT31;68134;51.984;5.652;2024-01-10T03:22:23;-1.2;48.8
78793;SHT31;68134;51.984;5.652;2024-01-10T03:24:52;-1.2;48.2
78793;SHT31;68134;51.984;5.652;2024-01-10T03:27:22;-1.2;48.3
78793;SHT31;68134;51.984;5.652;2024-01-10T03:29:51;-1.2;48.3
78793;SHT31;68134;51.984;5.652;2024-01-10T03:32:19;-1.2;48.5
78793;SHT31;68134;51.984;5.652;2024-01-10T03:34:48;-1.2;48.0
78793;SHT31;68134;51.984;5.652;2024-01-10T03:37:18;-1.2;48.2
78793;SHT31;68134;51.984;5.652;2024-01-10T03:39:47;-1.3;48.4
78793;SHT31;68134;51.984;5.652;2024-01-10T03:42:15;-1.3;48.7
78793;SHT31;68134;51.984;5.652;2024-01-10T03:44:44;-1.3;48.8
78793;SHT31;68134;51.984;5.652;2024-01-10T03:47:13;-1.3;49.0
78793;SHT31;68134;51.984;5.652;2024-01-10T03:49:41;-1.3;49.2
78793;SHT31;68134;51.984;5.652;2024-01-10T03:52:10;-1.3;49.4
78793;SHT31;68134;51.984;5.652;2024-01-10T03:54:38;-1.3;49.4
78793;SHT31;68134;51.984;5.652;2024-01-10T03:57:09;-1.3;49.0
78793;SHT31;68134;51.984;5.652;2024-01-10T03:59:38;-1.3;48.8
78793;SHT31;68134;51.984;5.652;2024-01-10T04:02:06;-1.4;48.9
78793;SHT31;68134;51.984;5.652;2024-01-10T04:04:36;-1.4;48.9
78793;SHT31;68134;51.984;5.652;2024-01-10T04:07:06;-1.4;49.1
78793;SHT31;68134;51.984;5.652;2024-01-10T04:09:35;-1.4;49.4
78793;SHT31;68134;51.984;5.652;2024-01-10T04:12:03;-1.4;49.4
78793;SHT31;68134;51.984;5.652;2024-01-10T04:14:32;-1.4;49.4
78793;SHT31;68134;51.984;5.652;2024-01-10T04:17:03;-1.5;49.7
78793;SHT31;68134;51.984;5.652;2024-01-10T04:19:33;-1.5;49.5
78793;SHT31;68134;51.984;5.652;2024-01-10T04:22:02;-1.5;50.0
78793;SHT31;68134;51.984;5.652;2024-01-10T04:24:30;-1.5;50.1
78793;SHT31;68134;51.984;5.652;2024-01-10T04:26:59;-1.5;50.2
78793;SHT31;68134;51.984;5.652;2024-01-10T04:29:27;-1.5;50.0
78793;SHT31;68134;51.984;5.652;2024-01-10T04:31:56;-1.5;49.9
78793;SHT31;68134;51.984;5.652;2024-01-10T04:34:24;-1.5;49.9
78793;SHT31;68134;51.984;5.652;2024-01-10T04:36:53;-1.5;50.4
78793;SHT31;68134;51.984;5.652;2024-01-10T04:39:21;-1.5;50.3
78793;SHT31;68134;51.984;5.652;2024-01-10T04:41:50;-1.6;50.1
78793;SHT31;68134;51.984;5.652;2024-01-10T04:44:18;-1.6;50.2
78793;SHT31;68134;51.984;5.652;2024-01-10T04:46:47;-1.6;50.2
78793;SHT31;68134;51.984;5.652;2024-01-10T04:49:15;-1.7;50.5
78793;SHT31;68134;51.984;5.652;2024-01-10T04:51:44;-1.7;50.7
78793;SHT31;68134;51.984;5.652;2024-01-10T04:54:13;-1.7;50.5
78793;SHT31;68134;51.984;5.652;2024-01-10T04:56:41;-1.7;50.0
78793;SHT31;68134;51.984;5.652;2024-01-10T04:59:10;-1.7;50.3
78793;SHT31;68134;51.984;5.652;2024-01-10T05:01:39;-1.7;50.5
78793;SHT31;68134;51.984;5.652;2024-01-10T05:04:08;-1.7;50.5
78793;SHT31;68134;51.984;5.652;2024-01-10T05:06:36;-1.7;50.5
78793;SHT31;68134;51.984;5.652;2024-01-10T05:09:05;-1.7;51.1
78793;SHT31;68134;51.984;5.652;2024-01-10T05:11:33;-1.7;50.6
78793;SHT31;68134;51.984;5.652;2024-01-10T05:14:03;-1.8;50.5
78793;SHT31;68134;51.984;5.652;2024-01-10T05:16:31;-1.8;50.9
78793;SHT31;68134;51.984;5.652;2024-01-10T05:19:02;-1.8;51.0
78793;SHT31;68134;51.984;5.652;2024-01-10T05:21:32;-1.8;50.9
78793;SHT31;68134;51.984;5.652;2024-01-10T05:24:01;-1.8;50.5
78793;SHT31;68134;51.984;5.652;2024-01-10T05:26:29;-1.8;50.6
78793;SHT31;68134;51.984;5.652;2024-01-10T05:28:58;-1.8;50.4
78793;SHT31;68134;51.984;5.652;2024-01-10T05:31:27;-1.8;51.0
78793;SHT31;68134;51.984;5.652;2024-01-10T05:33:57;-1.8;51.1
78793;SHT31;68134;51.984;5.652;2024-01-10T05:36:25;-1.8;51.1
78793;SHT31;68134;51.984;5.652;2024-01-10T05:38:54;-1.9;51.1
78793;SHT31;68134;51.984;5.652;2024-01-10T05:41:22;-1.9;51.2
78793;SHT31;68134;51.984;5.652;2024-01-10T05:43:51;-1.9;51.0
78793;SHT31;68134;51.984;5.652;2024-01-10T05:46:20;-1.9;51.0
78793;SHT31;68134;51.984;5.652;2024-01-10T05:48:48;-1.9;51.3
78793;SHT31;68134;51.984;5.652;2024-01-10T05:51:17;-1.9;51.3
78793;SHT31;68134;51.984;5.652;2024-01-10T05:53:46;-1.9;51.4
78793;SHT31;68134;51.984;5.652;2024-01-10T05:56:14;-1.8;50.8
78793;SHT31;68134;51.984;5.652;2024-01-10T05:58:43;-1.8;50.6
78793;SHT31;68134;51.984;5.652;2024-01-10T06:01:11;-1.8;50.7
78793;SHT31;68134;51.984;5.652;2024-01-10T06:03:40;-1.8;50.7
78793;SHT31;68134;51.984;5.652;2024-01-10T06:06:09;-1.8;50.8
78793;SHT31;68134;51.984;5.652;2024-01-10T06:08:37;-1.9;50.6
78793;SHT31;68134;51.984;5.652;2024-01-10T06:11:06;-1.9;50.9
78793;SHT31;68134;51.984;5.652;2024-01-10T06:13:35;-1.9;51.2
78793;SHT31;68134;51.984;5.652;2024-01-10T06:16:06;-1.9;51.1
78793;SHT31;68134;51.984;5.652;2024-01-10T06:18:35;-1.9;51.1
78793;SHT31;68134;51.984;5.652;2024-01-10T06:21:05;-1.9;51.0
78793;SHT31;68134;51.984;5.652;2024-01-10T06:23:33;-1.9;51.3
78793;SHT31;68134;51.984;5.652;2024-01-10T06:26:02;-1.9;51.1
78793;SHT31;68134;51.984;5.652;2024-01-10T06:28:30;-2.0;51.0
78793;SHT31;68134;51.984;5.652;2024-01-10T06:30:59;-2.0;51.2
78793;SHT31;68134;51.984;5.652;2024-01-10T06:33:27;-2.0;51.4
78793;SHT31;68134;51.984;5.652;2024-01-10T06:35:56;-2.0;51.3
78793;SHT31;68134;51.984;5.652;2024-01-10T06:38:25;-2.0;51.3
78793;SHT31;68134;51.984;5.652;2024-01-10T06:40:53;-2.0;51.5
78793;SHT31;68134;51.984;5.652;2024-01-10T06:43:22;-2.0;51.3
78793;SHT31;68134;51.984;5.652;2024-01-10T06:45:51;-2.0;50.8
78793;SHT31;68134;51.984;5.652;2024-01-10T06:48:19;-2.0;51.2
78793;SHT31;68134;51.984;5.652;2024-01-10T06:50:48;-2.0;51.3
78793;SHT31;68134;51.984;5.652;2024-01-10T06:53:16;-2.0;51.0
78793;SHT31;68134;51.984;5.652;2024-01-10T06:55:45;-2.0;50.7
78793;SHT31;68134;51.984;5.652;2024-01-10T06:58:13;-2.0;51.0
78793;SHT31;68134;51.984;5.652;2024-01-10T07:00:42;-2.0;51.1
78793;SHT31;68134;51.984;5.652;2024-01-10T07:03:10;-2.0;51.2
78793;SHT31;68134;51.984;5.652;2024-01-10T07:05:39;-2.0;51.7
78793;SHT31;68134;51.984;5.652;2024-01-10T07:08:07;-2.0;51.1
78793;SHT31;68134;51.984;5.652;2024-01-10T07:10:36;-2.0;51.3
78793;SHT31;68134;51.984;5.652;2024-01-10T07:13:05;-2.0;51.4
78793;SHT31;68134;51.984;5.652;2024-01-10T07:15:33;-2.0;51.2
78793;SHT31;68134;51.984;5.652;2024-01-10T07:18:02;-2.0;51.5
78793;SHT31;68134;51.984;5.652;2024-01-10T07:20:30;-2.0;51.4
78793;SHT31;68134;51.984;5.652;2024-01-10T07:22:59;-2.0;51.6
78793;SHT31;68134;51.984;5.652;2024-01-10T07:25:27;-2.0;51.5
78793;SHT31;68134;51.984;5.652;2024-01-10T07:27:58;-2.0;50.8
78793;SHT31;68134;51.984;5.652;2024-01-10T07:30:29;-2.0;51.2
78793;SHT31;68134;51.984;5.652;2024-01-10T07:32:59;-2.0;51.4
78793;SHT31;68134;51.984;5.652;2024-01-10T07:35:29;-2.0;51.6
78793;SHT31;68134;51.984;5.652;2024-01-10T07:37:58;-2.0;51.5
78793;SHT31;68134;51.984;5.652;2024-01-10T07:40:28;-2.0;51.5
78793;SHT31;68134;51.984;5.652;2024-01-10T07:42:57;-2.0;51.7
78793;SHT31;68134;51.984;5.652;2024-01-10T07:45:26;-2.0;51.5
78793;SHT31;68134;51.984;5.652;2024-01-10T07:47:55;-2.0;51.5
78793;SHT31;68134;51.984;5.652;2024-01-10T07:50:23;-2.0;51.4
78793;SHT31;68134;51.984;5.652;2024-01-10T07:52:54;-2.0;50.8
78793;SHT31;68134;51.984;5.652;2024-01-10T07:55:22;-2.0;51.2
78793;SHT31;68134;51.984;5.652;2024-01-10T07:57:51;-2.0;51.4
78793;SHT31;68134;51.984;5.652;2024-01-10T08:00:20;-2.0;51.4
78793;SHT31;68134;51.984;5.652;2024-01-10T08:02:49;-2.0;51.0
78793;SHT31;68134;51.984;5.652;2024-01-10T08:05:17;-2.0;51.2
78793;SHT31;68134;51.984;5.652;2024-01-10T08:07:47;-2.0;51.8
78793;SHT31;68134;51.984;5.652;2024-01-10T08:10:16;-2.0;50.9
78793;SHT31;68134;51.984;5.652;2024-01-10T08:12:44;-2.0;51.2
78793;SHT31;68134;51.984;5.652;2024-01-10T08:15:13;-2.0;51.0
78793;SHT31;68134;51.984;5.652;2024-01-10T08:17:42;-2.0;50.8
78793;SHT31;68134;51.984;5.652;2024-01-10T08:20:11;-2.0;50.7
78793;SHT31;68134;51.984;5.652;2024-01-10T08:22:41;-2.0;50.5
78793;SHT31;68134;51.984;5.652;2024-01-10T08:25:11;-2.0;51.0
78793;SHT31;68134;51.984;5.652;2024-01-10T08:27:42;-2.0;50.8
78793;SHT31;68134;51.984;5.652;2024-01-10T08:30:12;-2.0;51.4
78793;SHT31;68134;51.984;5.652;2024-01-10T08:32:41;-1.8;51.3
78793;SHT31;68134;51.984;5.652;2024-01-10T08:35:09;-1.5;50.7
78793;SHT31;68134;51.984;5.652;2024-01-10T08:37:38;-1.1;49.1
78793;SHT31;68134;51.984;5.652;2024-01-10T08:40:09;-0.8;47.7
78793;SHT31;68134;51.984;5.652;2024-01-10T08:42:38;-0.6;46.9
78793;SHT31;68134;51.984;5.652;2024-01-10T08:45:08;-0.5;46.5
78793;SHT31;68134;51.984;5.652;2024-01-10T08:47:37;-0.3;46.0
78793;SHT31;68134;51.984;5.652;2024-01-10T08:50:07;-0.1;45.9
78793;SHT31;68134;51.984;5.652;2024-01-10T08:52:36;0.1;44.6
78793;SHT31;68134;51.984;5.652;2024-01-10T08:55:07;0.2;44.4
78793;SHT31;68134;51.984;5.652;2024-01-10T08:57:36;0.4;43.5
78793;SHT31;68134;51.984;5.652;2024-01-10T09:00:05;0.4;42.9
78793;SHT31;68134;51.984;5.652;2024-01-10T09:02:38;0.5;43.1
78793;SHT31;68134;51.984;5.652;2024-01-10T09:05:07;0.5;42.8
78793;SHT31;68134;51.984;5.652;2024-01-10T09:07:36;0.5;42.8
78793;SHT31;68134;51.984;5.652;2024-01-10T09:10:06;0.5;42.7
78793;SHT31;68134;51.984;5.652;2024-01-10T09:12:36;0.5;42.3
78793;SHT31;68134;51.984;5.652;2024-01-10T09:15:05;0.5;42.5
78793;SHT31;68134;51.984;5.652;2024-01-10T09:17:39;0.5;42.3
78793;SHT31;68134;51.984;5.652;2024-01-10T09:20:09;0.5;42.4
78793;SHT31;68134;51.984;5.652;2024-01-10T09:22:39;0.5;41.9
78793;SHT31;68134;51.984;5.652;2024-01-10T09:25:08;0.6;42.2
78793;SHT31;68134;51.984;5.652;2024-01-10T09:27:39;0.6;42.0
78793;SHT31;68134;51.984;5.652;2024-01-10T09:30:11;0.7;42.4
78793;SHT31;68134;51.984;5.652;2024-01-10T09:32:42;0.7;41.2
78793;SHT31;68134;51.984;5.652;2024-01-10T09:35:11;0.8;40.8
78793;SHT31;68134;51.984;5.652;2024-01-10T09:37:40;0.8;41.0
78793;SHT31;68134;51.984;5.652;2024-01-10T09:40:10;0.9;41.0
78793;SHT31;68134;51.984;5.652;2024-01-10T09:42:45;0.9;40.5
78793;SHT31;68134;51.984;5.652;2024-01-10T09:45:19;1.1;40.0
78793;SHT31;68134;51.984;5.652;2024-01-10T09:47:57;1.3;40.1
78793;SHT31;68134;51.984;5.652;2024-01-10T09:50:28;1.7;39.3
78793;SHT31;68134;51.984;5.652;2024-01-10T09:53:05;2.2;37.7
78793;SHT31;68134;51.984;5.652;2024-01-10T09:55:36;2.6;37.6
78793;SHT31;68134;51.984;5.652;2024-01-10T09:58:08;2.8;36.7
78793;SHT31;68134;51.984;5.652;2024-01-10T10:00:37;3.0;37.7
78793;SHT31;68134;51.984;5.652;2024-01-10T10:03:09;3.2;35.4
78793;SHT31;68134;51.984;5.652;2024-01-10T10:05:39;3.3;35.1
78793;SHT31;68134;51.984;5.652;2024-01-10T10:08:11;3.5;35.2
78793;SHT31;68134;51.984;5.652;2024-01-10T10:10:41;3.7;34.6
78793;SHT31;68134;51.984;5.652;2024-01-10T10:13:25;3.8;34.0
78793;SHT31;68134;51.984;5.652;2024-01-10T10:16:01;3.8;33.3
78793;SHT31;68134;51.984;5.652;2024-01-10T10:18:31;3.9;33.2
78793;SHT31;68134;51.984;5.652;2024-01-10T10:21:10;3.9;33.6
78793;SHT31;68134;51.984;5.652;2024-01-10T10:23:40;3.9;33.6
78793;SHT31;68134;51.984;5.652;2024-01-10T10:26:13;3.9;33.1
78793;SHT31;68134;51.984;5.652;2024-01-10T10:28:46;3.9;33.5
78793;SHT31;68134;51.984;5.652;2024-01-10T10:31:16;3.9;33.7
78793;SHT31;68134;51.984;5.652;2024-01-10T10:33:47;3.8;33.4
78793;SHT31;68134;51.984;5.652;2024-01-10T10:36:17;3.8;32.6
78793;SHT31;68134;51.984;5.652;2024-01-10T10:38:47;3.8;33.0
78793;SHT31;68134;51.984;5.652;2024-01-10T10:41:16;3.8;33.4
78793;SHT31;68134;51.984;5.652;2024-01-10T10:43:44;3.7;33.3
78793;SHT31;68134;51.984;5.652;2024-01-10T10:46:15;3.7;33.8
78793;SHT31;68134;51.984;5.652;2024-01-10T10:48:44;3.8;32.5
78793;SHT31;68134;51.984;5.652;2024-01-10T10:51:18;3.8;32.9
78793;SHT31;68134;51.984;5.652;2024-01-10T10:53:48;3.8;32.8
78793;SHT31;68134;51.984;5.652;2024-01-10T10:56:17;3.8;32.3
78793;SHT31;68134;51.984;5.652;2024-01-10T10:58:46;3.8;32.8
78793;SHT31;68134;51.984;5.652;2024-01-10T11:01:17;3.9;32.8
78793;SHT31;68134;51.984;5.652;2024-01-10T11:03:48;4.0;31.7
78793;SHT31;68134;51.984;5.652;2024-01-10T11:06:17;4.1;32.0
78793;SHT31;68134;51.984;5.652;2024-01-10T11:08:51;4.1;32.1
78793;SHT31;68134;51.984;5.652;2024-01-10T11:11:33;4.2;32.0
78793;SHT31;68134;51.984;5.652;2024-01-10T11:14:18;4.2;32.1
78793;SHT31;68134;51.984;5.652;2024-01-10T11:17:18;4.2;31.8
78793;SHT31;68134;51.984;5.652;2024-01-10T11:20:09;4.3;32.4
78793;SHT31;68134;51.984;5.652;2024-01-10T11:23:01;4.4;31.1
78793;SHT31;68134;51.984;5.652;2024-01-10T11:25:34;4.4;31.4
78793;SHT31;68134;51.984;5.652;2024-01-10T11:28:04;4.5;31.2
78793;SHT31;68134;51.984;5.652;2024-01-10T11:30:37;4.6;31.8
78793;SHT31;68134;51.984;5.652;2024-01-10T11:33:20;4.8;31.8
78793;SHT31;68134;51.984;5.652;2024-01-10T11:36:09;5.2;31.0
78793;SHT31;68134;51.984;5.652;2024-01-10T11:38:44;5.6;29.8
78793;SHT31;68134;51.984;5.652;2024-01-10T11:41:21;5.9;29.4
78793;SHT31;68134;51.984;5.652;2024-01-10T11:44:27;6.2;28.6
78793;SHT31;68134;51.984;5.652;2024-01-10T11:46:57;6.6;28.6
78793;SHT31;68134;51.984;5.652;2024-01-10T11:49:27;6.7;28.3
78793;SHT31;68134;51.984;5.652;2024-01-10T11:51:57;6.8;28.1
78793;SHT31;68134;51.984;5.652;2024-01-10T11:54:44;6.9;27.2
78793;SHT31;68134;51.984;5.652;2024-01-10T11:57:19;6.9;26.9
78793;SHT31;68134;51.984;5.652;2024-01-10T11:59:50;6.8;27.0
78793;SHT31;68134;51.984;5.652;2024-01-10T12:02:20;6.7;27.7
78793;SHT31;68134;51.984;5.652;2024-01-10T12:04:50;6.6;28.5
78793;SHT31;68134;51.984;5.652;2024-01-10T12:07:19;6.6;27.7
78793;SHT31;68134;51.984;5.652;2024-01-10T12:09:50;6.5;27.9
78793;SHT31;68134;51.984;5.652;2024-01-10T12:12:19;6.4;27.4
78793;SHT31;68134;51.984;5.652;2024-01-10T12:14:50;6.3;27.8
78793;SHT31;68134;51.984;5.652;2024-01-10T12:17:21;6.2;28.2
78793;SHT31;68134;51.984;5.652;2024-01-10T12:19:49;6.1;28.5
78793;SHT31;68134;51.984;5.652;2024-01-10T12:22:19;6.1;28.9
78793;SHT31;68134;51.984;5.652;2024-01-10T12:24:52;6.1;28.4
78793;SHT31;68134;51.984;5.652;2024-01-10T12:27:20;6.2;29.4
78793;SHT31;68134;51.984;5.652;2024-01-10T12:29:50;6.5;29.0
78793;SHT31;68134;51.984;5.652;2024-01-10T12:32:19;6.8;29.0
78793;SHT31;68134;51.984;5.652;2024-01-10T12:34:49;7.2;27.6
78793;SHT31;68134;51.984;5.652;2024-01-10T12:37:22;7.5;27.6
78793;SHT31;68134;51.984;5.652;2024-01-10T12:39:51;7.7;27.1
78793;SHT31;68134;51.984;5.652;2024-01-10T12:42:20;7.8;26.7
78793;SHT31;68134;51.984;5.652;2024-01-10T12:44:48;7.9;26.6
78793;SHT31;68134;51.984;5.652;2024-01-10T12:47:21;8.0;26.7
78793;SHT31;68134;51.984;5.652;2024-01-10T12:49:50;8.2;26.9
78793;SHT31;68134;51.984;5.652;2024-01-10T12:52:20;8.3;26.1
78793;SHT31;68134;51.984;5.652;2024-01-10T12:54:51;8.3;26.3
78793;SHT31;68134;51.984;5.652;2024-01-10T12:57:20;8.4;26.9
78793;SHT31;68134;51.984;5.652;2024-01-10T12:59:50;8.5;26.3
78793;SHT31;68134;51.984;5.652;2024-01-10T13:02:18;8.6;26.5
78793;SHT31;68134;51.984;5.652;2024-01-10T13:04:47;8.7;26.5
78793;SHT31;68134;51.984;5.652;2024-01-10T13:07:16;8.8;26.6
78793;SHT31;68134;51.984;5.652;2024-01-10T13:09:45;8.9;26.0
78793;SHT31;68134;51.984;5.652;2024-01-10T13:12:15;8.9;26.4
78793;SHT31;68134;51.984;5.652;2024-01-10T13:14:44;9.0;25.6
78793;SHT31;68134;51.984;5.652;2024-01-10T13:17:12;9.1;25.6
78793;SHT31;68134;51.984;5.652;2024-01-10T13:19:41;9.1;25.5
78793;SHT31;68134;51.984;5.652;2024-01-10T13:22:15;9.1;25.2
78793;SHT31;68134;51.984;5.652;2024-01-10T13:24:45;9.1;25.3
78793;SHT31;68134;51.984;5.652;2024-01-10T13:27:14;9.1;25.5
78793;SHT31;68134;51.984;5.652;2024-01-10T13:29:43;9.0;25.7
78793;SHT31;68134;51.984;5.652;2024-01-10T13:32:13;9.0;26.2
78793;SHT31;68134;51.984;5.652;2024-01-10T13:34:42;9.0;26.2
78793;SHT31;68134;51.984;5.652;2024-01-10T13:37:10;9.0;25.4
78793;SHT31;68134;51.984;5.652;2024-01-10T13:39:41;9.0;26.0
78793;SHT31;68134;51.984;5.652;2024-01-10T13:42:10;9.0;25.3
78793;SHT31;68134;51.984;5.652;2024-01-10T13:44:39;9.0;26.4
78793;SHT31;68134;51.984;5.652;2024-01-10T13:47:07;8.9;25.9
78793;SHT31;68134;51.984;5.652;2024-01-10T13:49:36;8.9;26.1
78793;SHT31;68134;51.984;5.652;2024-01-10T13:52:05;8.8;25.8
78793;SHT31;68134;51.984;5.652;2024-01-10T13:54:34;8.8;27.0
78793;SHT31;68134;51.984;5.652;2024-01-10T13:57:03;8.8;26.4
78793;SHT31;68134;51.984;5.652;2024-01-10T13:59:32;8.7;26.1
78793;SHT31;68134;51.984;5.652;2024-01-10T14:02:00;8.7;26.8
78793;SHT31;68134;51.984;5.652;2024-01-10T14:04:29;8.7;27.0
78793;SHT31;68134;51.984;5.652;2024-01-10T14:06:58;8.7;26.1
78793;SHT31;68134;51.984;5.652;2024-01-10T14:09:26;8.7;26.4
78793;SHT31;68134;51.984;5.652;2024-01-10T14:11:55;8.7;26.3
78793;SHT31;68134;51.984;5.652;2024-01-10T14:14:23;8.7;26.2
78793;SHT31;68134;51.984;5.652;2024-01-10T14:16:52;8.7;26.5
78793;SHT31;68134;51.984;5.652;2024-01-10T14:19:21;8.6;26.3
78793;SHT31;68134;51.984;5.652;2024-01-10T14:21:49;8.6;26.5
78793;SHT31;68134;51.984;5.652;2024-01-10T14:24:18;8.5;26.8
78793;SHT31;68134;51.984;5.652;2024-01-10T14:26:48;8.4;26.7
78793;SHT31;68134;51.984;5.652;2024-01-10T14:29:17;8.2;26.4
78793;SHT31;68134;51.984;5.652;2024-01-10T14:31:45;7.6;27.6
78793;SHT31;68134;51.984;5.652;2024-01-10T14:34:15;7.0;28.2
78793;SHT31;68134;51.984;5.652;2024-01-10T14:36:45;6.4;29.6
78793;SHT31;68134;51.984;5.652;2024-01-10T14:39:13;5.8;31.3
78793;SHT31;68134;51.984;5.652;2024-01-10T14:41:42;5.5;31.2
78793;SHT31;68134;51.984;5.652;2024-01-10T14:44:10;5.2;31.9
78793;SHT31;68134;51.984;5.652;2024-01-10T14:46:41;5.0;32.2
78793;SHT31;68134;51.984;5.652;2024-01-10T14:49:09;4.8;32.9
78793;SHT31;68134;51.984;5.652;2024-01-10T14:51:38;4.7;32.6
78793;SHT31;68134;51.984;5.652;2024-01-10T14:54:06;4.5;33.7
78793;SHT31;68134;51.984;5.652;2024-01-10T14:56:35;4.4;33.4
78793;SHT31;68134;51.984;5.652;2024-01-10T14:59:06;4.4;33.8
78793;SHT31;68134;51.984;5.652;2024-01-10T15:01:34;4.5;34.1
78793;SHT31;68134;51.984;5.652;2024-01-10T15:04:03;4.5;33.4
78793;SHT31;68134;51.984;5.652;2024-01-10T15:06:31;4.6;34.0
78793;SHT31;68134;51.984;5.652;2024-01-10T15:09:00;4.6;33.8
78793;SHT31;68134;51.984;5.652;2024-01-10T15:11:29;4.5;35.0
78793;SHT31;68134;51.984;5.652;2024-01-10T15:13:58;4.5;33.7
78793;SHT31;68134;51.984;5.652;2024-01-10T15:16:27;4.4;33.8
78793;SHT31;68134;51.984;5.652;2024-01-10T15:18:55;4.3;34.3
78793;SHT31;68134;51.984;5.652;2024-01-10T15:21:26;4.3;34.4
78793;SHT31;68134;51.984;5.652;2024-01-10T15:23:55;4.2;35.1
78793;SHT31;68134;51.984;5.652;2024-01-10T15:26:24;4.1;35.5
78793;SHT31;68134;51.984;5.652;2024-01-10T15:28:53;3.9;35.8
78793;SHT31;68134;51.984;5.652;2024-01-10T15:31:27;3.8;35.0
78793;SHT31;68134;51.984;5.652;2024-01-10T15:33:56;3.7;36.3
78793;SHT31;68134;51.984;5.652;2024-01-10T15:36:24;3.5;36.9
78793;SHT31;68134;51.984;5.652;2024-01-10T15:38:55;3.4;37.0
78793;SHT31;68134;51.984;5.652;2024-01-10T15:41:24;3.3;36.8
78793;SHT31;68134;51.984;5.652;2024-01-10T15:43:54;3.2;37.4
78793;SHT31;68134;51.984;5.652;2024-01-10T15:46:23;3.1;38.0
78793;SHT31;68134;51.984;5.652;2024-01-10T15:48:52;3.0;37.5
78793;SHT31;68134;51.984;5.652;2024-01-10T15:51:20;3.0;38.5
78793;SHT31;68134;51.984;5.652;2024-01-10T15:53:49;2.9;37.8
78793;SHT31;68134;51.984;5.652;2024-01-10T15:56:23;2.8;37.7
78793;SHT31;68134;51.984;5.652;2024-01-10T15:58:51;2.8;38.1
78793;SHT31;68134;51.984;5.652;2024-01-10T16:01:20;2.7;38.7
78793;SHT31;68134;51.984;5.652;2024-01-10T16:03:50;2.6;38.8
78793;SHT31;68134;51.984;5.652;2024-01-10T16:06:21;2.6;38.7
78793;SHT31;68134;51.984;5.652;2024-01-10T16:08:50;2.5;40.3
78793;SHT31;68134;51.984;5.652;2024-01-10T16:11:19;2.5;39.8
78793;SHT31;68134;51.984;5.652;2024-01-10T16:13:47;2.5;40.6
78793;SHT31;68134;51.984;5.652;2024-01-10T16:16:23;2.4;40.2
78793;SHT31;68134;51.984;5.652;2024-01-10T16:18:54;2.4;41.7
78793;SHT31;68134;51.984;5.652;2024-01-10T16:21:23;2.3;40.4
78793;SHT31;68134;51.984;5.652;2024-01-10T16:23:51;2.3;41.2
78793;SHT31;68134;51.984;5.652;2024-01-10T16:26:20;2.3;40.6